« Back
NWS Peachtree City, Ga » Text Product » MCN Terminal Aerodrome Forecast


Printer-friendly Version
Current Version              Previous Versions:   1  2  3  4  5  6  7  8  9  

Terminal Aerodrome Forecast

749
FTUS42 KFFC 300734 AAA
TAFMCN
TAF AMD
KMCN 300734Z 3008/3106 VRB03KT P6SM VCSH FEW025 SCT080 BKN120
     FM301400 03006KT P6SM SCT040 SCT120
     FM301700 34007KT P6SM VCSH BKN050 PROB30 3018/3023 6SM -TSRA
      BKN040CB
     FM310100 VRB04KT P6SM SCT060 SCT250=



USA.gov is the U.S. government's official web portal to all federal, state and local government web resources and services.